Norfolk Downs, Massachusetts
Current Conditions -  °F | °C
As of 3:54 AM on Thursday 23 Oct 2014 (Local Time) from KBOS Reporting Station
Heavy Rain Heavy Rain  
Wind Chill:   Ceiling: 1200
Heat Index:   Visibility: 1.5mi
Dew Point:   Wind: 24mph
Humidity: 100%   Direction: 10°N
Pressure: 29.71"   Gusts: 32mph
Location:  42.2866°N, 71.0248°W
Report Text: KBOS 230754Z 01021G28KT 1 1/2SM +RA BR FEW008 BKN012 OVC018 09/09 A2971 RMK AO2 PK WND 02034/0657 SLP061 P0046 T00940094 $
Loading
Personal Weather Stations






























Interactive Weather Map
Tropical Storm Tracking
New forecast layout! Learn more

10-Day Weather Forecast

Advertisements
Track Severe Weather on mobile